Time;durP1;ratioP1;P1;durP2;ratioP2;P2;SDS_P1;SDS_P2;PMS_P1;PMS_P2;Temp;Humidity;BMP_temperature;BMP_pressure;BME280_temperature;BME280_humidity;BME280_pressure;Samples;Min_cycle;Max_cycle;Signal;HPM_P1;HPM_P2
2022/04/03 00:01:52;;;;;;;1.27;1.20;;;;;;;;;;5096648;28;20590;-55
2022/04/03 00:04:19;;;;;;;1.40;1.30;;;;;;;;;;5107405;28;20225;-55
2022/04/03 00:06:47;;;;;;;1.40;1.30;;;;;;;;;;5116640;28;20207;-55
2022/04/03 00:09:14;;;;;;;1.48;1.27;;;;;;;;;;5116520;28;20209;-55
2022/04/03 00:11:42;;;;;;;1.35;1.25;;;;;;;;;;5116444;28;20209;-55
2022/04/03 00:14:11;;;;;;;1.52;1.30;;;;;;;;;;5116850;28;20210;-55
2022/04/03 00:16:39;;;;;;;1.30;1.20;;;;;;;;;;5104454;28;20200;-55
2022/04/03 00:19:08;;;;;;;1.30;1.20;;;;;;;;;;5096922;28;20457;-55
2022/04/03 00:21:36;;;;;;;1.42;1.27;;;;;;;;;;5096610;28;20223;-55
2022/04/03 00:24:03;;;;;;;1.42;1.17;;;;;;;;;;5096390;28;20596;-55
2022/04/03 00:26:31;;;;;;;1.30;1.20;;;;;;;;;;5096907;28;20274;-55
2022/04/03 00:28:58;;;;;;;1.15;1.05;;;;;;;;;;5108832;28;20230;-55
2022/04/03 00:31:27;;;;;;;1.50;1.40;;;;;;;;;;5108852;28;20202;-55
2022/04/03 00:33:56;;;;;;;1.30;1.20;;;;;;;;;;5117308;28;20217;-55
2022/04/03 00:36:23;;;;;;;1.20;1.10;;;;;;;;;;5103146;28;20226;-55
2022/04/03 00:38:51;;;;;;;1.30;1.20;;;;;;;;;;5115650;28;20199;-55
2022/04/03 00:41:20;;;;;;;1.40;1.30;;;;;;;;;;5105203;28;20247;-55
2022/04/03 00:43:48;;;;;;;1.20;1.10;;;;;;;;;;5100463;28;20203;-55
2022/04/03 00:46:17;;;;;;;1.40;1.30;;;;;;;;;;5111562;28;20199;-55
2022/04/03 00:48:47;;;;;;;1.30;1.20;;;;;;;;;;5120575;28;20199;-55
2022/04/03 00:51:14;;;;;;;1.50;1.40;;;;;;;;;;5119949;28;20195;-55
2022/04/03 00:53:41;;;;;;;1.35;1.25;;;;;;;;;;5121323;28;20203;-55
2022/04/03 00:56:09;;;;;;;1.45;1.30;;;;;;;;;;5120303;28;20218;-55
2022/04/03 00:58:39;;;;;;;1.20;1.10;;;;;;;;;;5120215;28;20199;-55
2022/04/03 01:01:07;;;;;;;1.50;1.40;;;;;;;;;;5105597;28;20309;-55
2022/04/03 01:03:34;;;;;;;0.95;0.90;;;;;;;;;;5100376;28;20669;-55
2022/04/03 01:06:03;;;;;;;1.20;1.10;;;;;;;;;;5119530;28;20210;-55
2022/04/03 01:08:30;;;;;;;1.10;1.00;;;;;;;;;;5108543;28;20203;-55
2022/04/03 01:10:58;;;;;;;1.42;1.27;;;;;;;;;;5107880;28;20504;-55
2022/04/03 01:13:26;;;;;;;1.30;1.20;;;;;;;;;;5118328;28;20210;-55
2022/04/03 01:15:54;;;;;;;1.13;1.02;;;;;;;;;;5119584;28;20191;-55
2022/04/03 01:18:24;;;;;;;0.95;0.95;;;;;;;;;;5119642;28;20236;-55
2022/04/03 01:20:52;;;;;;;1.08;0.98;;;;;;;;;;5106489;28;20202;-55
2022/04/03 01:23:21;;;;;;;1.17;1.08;;;;;;;;;;5099259;28;20238;-55
2022/04/03 01:25:50;;;;;;;1.20;1.10;;;;;;;;;;5102736;28;20199;-55
2022/04/03 01:28:18;;;;;;;1.98;1.20;;;;;;;;;;5107902;28;20586;-55
2022/04/03 01:30:45;;;;;;;1.20;1.10;;;;;;;;;;5099297;28;20556;-55
2022/04/03 01:33:13;;;;;;;1.25;1.10;;;;;;;;;;5117933;28;20195;-55
2022/04/03 01:35:40;;;;;;;1.13;1.02;;;;;;;;;;5119644;28;20203;-55
2022/04/03 01:38:08;;;;;;;1.15;1.05;;;;;;;;;;5119535;28;20205;-55
2022/04/03 01:40:35;;;;;;;1.15;1.02;;;;;;;;;;5119468;28;20558;-55
2022/04/03 01:43:05;;;;;;;0.90;0.90;;;;;;;;;;5119776;28;20697;-55
2022/04/03 01:45:32;;;;;;;1.27;1.10;;;;;;;;;;5119229;28;20268;-55
2022/04/03 01:48:00;;;;;;;0.95;0.95;;;;;;;;;;5117927;28;20284;-55
2022/04/03 01:50:27;;;;;;;1.20;1.10;;;;;;;;;;5119155;28;20468;-55
2022/04/03 01:52:55;;;;;;;1.10;1.00;;;;;;;;;;5119074;28;20597;-55
2022/04/03 01:55:23;;;;;;;1.20;1.10;;;;;;;;;;5119214;28;20214;-55
2022/04/03 01:57:50;;;;;;;1.00;0.90;;;;;;;;;;5119687;28;20207;-55
2022/04/03 02:00:19;;;;;;;1.33;1.02;;;;;;;;;;5117014;28;20195;-55
2022/04/03 02:02:47;;;;;;;0.90;0.90;;;;;;;;;;5107380;28;20574;-55
2022/04/03 02:05:14;;;;;;;1.10;1.00;;;;;;;;;;5119547;28;20246;-55
2022/04/03 02:07:42;;;;;;;1.20;1.10;;;;;;;;;;5104183;28;20214;-56
2022/04/03 02:10:12;;;;;;;0.90;0.90;;;;;;;;;;5099317;28;20622;-55
2022/04/03 02:12:39;;;;;;;0.90;0.90;;;;;;;;;;5099063;28;20253;-55
2022/04/03 02:15:07;;;;;;;1.20;1.10;;;;;;;;;;5099620;28;20204;-55
2022/04/03 02:17:36;;;;;;;0.90;0.90;;;;;;;;;;5099151;28;20500;-55
2022/04/03 02:20:04;;;;;;;1.08;0.85;;;;;;;;;;5115293;28;20474;-55
2022/04/03 02:22:31;;;;;;;1.30;1.10;;;;;;;;;;5118886;28;20219;-55
2022/04/03 02:24:59;;;;;;;1.20;1.10;;;;;;;;;;5119179;28;20202;-55
2022/04/03 02:27:26;;;;;;;1.13;1.02;;;;;;;;;;5119288;28;20289;-55
2022/04/03 02:29:53;;;;;;;0.90;0.90;;;;;;;;;;5119218;28;20210;-55
2022/04/03 02:32:21;;;;;;;1.30;1.20;;;;;;;;;;5119085;28;20210;-55
2022/04/03 02:34:50;;;;;;;0.90;0.90;;;;;;;;;;5109819;28;20207;-55
2022/04/03 02:37:18;;;;;;;0.90;0.90;;;;;;;;;;5098976;28;20226;-55
2022/04/03 02:39:45;;;;;;;1.05;1.02;;;;;;;;;;5116302;28;20203;-55
2022/04/03 02:42:12;;;;;;;1.15;1.05;;;;;;;;;;5098272;28;20684;-55
2022/04/03 02:44:40;;;;;;;0.90;0.90;;;;;;;;;;5113526;28;20210;-55
2022/04/03 02:47:08;;;;;;;1.02;0.93;;;;;;;;;;5099248;28;20195;-55
2022/04/03 02:49:35;;;;;;;1.10;1.00;;;;;;;;;;5097606;28;20231;-55
2022/04/03 02:52:05;;;;;;;0.98;0.98;;;;;;;;;;5097858;28;20204;-55
2022/04/03 02:54:33;;;;;;;0.90;0.90;;;;;;;;;;5097323;28;20268;-55
2022/04/03 02:57:00;;;;;;;1.08;0.98;;;;;;;;;;5116262;28;20215;-55
2022/04/03 02:59:27;;;;;;;1.10;1.00;;;;;;;;;;5118016;28;20608;-55
2022/04/03 03:01:55;;;;;;;1.00;0.93;;;;;;;;;;5099007;28;20210;-55
2022/04/03 03:04:22;;;;;;;1.10;0.85;;;;;;;;;;5097411;28;20196;-55
2022/04/03 03:06:50;;;;;;;1.20;1.10;;;;;;;;;;5098779;28;20215;-55
2022/04/03 03:09:18;;;;;;;0.82;0.82;;;;;;;;;;5114343;28;20199;-55
2022/04/03 03:11:46;;;;;;;0.85;0.85;;;;;;;;;;5117388;28;20199;-55
2022/04/03 03:14:13;;;;;;;1.23;1.00;;;;;;;;;;5118123;28;20206;-55
2022/04/03 03:16:41;;;;;;;1.00;0.90;;;;;;;;;;5117061;28;20199;-55
2022/04/03 03:19:09;;;;;;;0.85;0.85;;;;;;;;;;5117899;28;20281;-55
2022/04/03 03:21:37;;;;;;;0.93;0.88;;;;;;;;;;5101997;28;20211;-55
2022/04/03 03:24:04;;;;;;;0.95;0.95;;;;;;;;;;5116112;28;20292;-55
2022/04/03 03:26:33;;;;;;;1.25;1.15;;;;;;;;;;5101862;28;20210;-55
2022/04/03 03:29:00;;;;;;;0.90;0.90;;;;;;;;;;5098184;28;20196;-55
2022/04/03 03:31:28;;;;;;;0.80;0.80;;;;;;;;;;5096890;28;20199;-55
2022/04/03 03:33:55;;;;;;;0.90;0.90;;;;;;;;;;5097212;28;20199;-55
2022/04/03 03:36:23;;;;;;;1.02;1.00;;;;;;;;;;5097235;28;20210;-55
2022/04/03 03:38:50;;;;;;;1.08;0.95;;;;;;;;;;5100330;28;20597;-55
2022/04/03 03:41:18;;;;;;;0.90;0.90;;;;;;;;;;5105209;28;20219;-55
2022/04/03 03:43:47;;;;;;;0.90;0.90;;;;;;;;;;5116564;28;20223;-55
2022/04/03 03:46:15;;;;;;;0.90;0.90;;;;;;;;;;5110184;28;20192;-55
2022/04/03 03:48:42;;;;;;;1.00;0.90;;;;;;;;;;5096482;28;20514;-55
2022/04/03 03:51:09;;;;;;;1.00;1.00;;;;;;;;;;5096750;28;20229;-55
2022/04/03 03:53:37;;;;;;;0.60;0.60;;;;;;;;;;5096763;28;20210;-55
2022/04/03 03:56:05;;;;;;;0.95;0.95;;;;;;;;;;5096929;28;20609;-55
2022/04/03 03:58:33;;;;;;;0.80;0.80;;;;;;;;;;5096969;28;20203;-55
2022/04/03 04:01:02;;;;;;;1.25;0.95;;;;;;;;;;5105535;28;20206;-55
2022/04/03 04:03:30;;;;;;;0.77;0.77;;;;;;;;;;5099676;28;20656;-55
2022/04/03 04:05:57;;;;;;;0.85;0.85;;;;;;;;;;5100746;28;20195;-55
2022/04/03 04:08:24;;;;;;;1.10;1.00;;;;;;;;;;5117488;28;20479;-55
2022/04/03 04:10:52;;;;;;;1.15;0.90;;;;;;;;;;5116511;28;20203;-55
2022/04/03 04:13:20;;;;;;;0.80;0.80;;;;;;;;;;5117302;28;20595;-55
2022/04/03 04:15:47;;;;;;;1.10;0.90;;;;;;;;;;5116760;28;20203;-55
2022/04/03 04:18:16;;;;;;;0.85;0.85;;;;;;;;;;5112094;28;20224;-55
2022/04/03 04:20:43;;;;;;;1.08;0.98;;;;;;;;;;5096819;28;20563;-55
2022/04/03 04:23:11;;;;;;;0.95;0.95;;;;;;;;;;5097006;28;20232;-55
2022/04/03 04:25:38;;;;;;;0.85;0.85;;;;;;;;;;5096885;28;20211;-56
2022/04/03 04:28:06;;;;;;;0.80;0.80;;;;;;;;;;5097444;28;20616;-55
2022/04/03 04:30:34;;;;;;;0.80;0.80;;;;;;;;;;5097225;28;20204;-55
2022/04/03 04:33:01;;;;;;;1.00;1.00;;;;;;;;;;5097236;28;20624;-55
2022/04/03 04:35:30;;;;;;;0.80;0.80;;;;;;;;;;5097112;28;20575;-56
2022/04/03 04:37:58;;;;;;;1.10;1.00;;;;;;;;;;5102114;28;20205;-55
2022/04/03 04:40:25;;;;;;;1.10;1.00;;;;;;;;;;5112816;28;20195;-56
2022/04/03 04:42:55;;;;;;;1.05;0.93;;;;;;;;;;5116694;28;20230;-55
2022/04/03 04:45:23;;;;;;;0.82;0.82;;;;;;;;;;5109814;28;20575;-56
2022/04/03 04:47:50;;;;;;;0.88;0.88;;;;;;;;;;5097240;28;20270;-55
2022/04/03 04:50:18;;;;;;;0.80;0.75;;;;;;;;;;5096616;28;20195;-55
2022/04/03 04:52:47;;;;;;;0.98;0.95;;;;;;;;;;5097106;28;20541;-55
2022/04/03 04:55:15;;;;;;;0.90;0.68;;;;;;;;;;5097060;28;20200;-55
2022/04/03 04:57:49;;;;;;;1.20;1.10;;;;;;;;;;5097115;28;20624;-55
2022/04/03 05:00:18;;;;;;;0.90;0.90;;;;;;;;;;5097209;28;20581;-55
2022/04/03 05:02:46;;;;;;;1.05;1.00;;;;;;;;;;5096429;28;20203;-55
2022/04/03 05:05:14;;;;;;;0.93;0.80;;;;;;;;;;5097936;28;20261;-55
2022/04/03 05:07:41;;;;;;;1.05;0.82;;;;;;;;;;5098122;28;20451;-55
2022/04/03 05:10:11;;;;;;;1.50;0.80;;;;;;;;;;5096966;28;20494;-56
2022/04/03 05:12:38;;;;;;;0.80;0.80;;;;;;;;;;5097495;28;20336;-56
2022/04/03 05:15:08;;;;;;;0.85;0.85;;;;;;;;;;5116496;28;20258;-56
2022/04/03 05:17:35;;;;;;;0.98;0.98;;;;;;;;;;5117119;28;20278;-56
2022/04/03 05:20:03;;;;;;;1.08;1.00;;;;;;;;;;5112323;28;20196;-55
2022/04/03 05:22:31;;;;;;;0.75;0.75;;;;;;;;;;5098907;28;20218;-55
2022/04/03 05:24:58;;;;;;;1.05;0.95;;;;;;;;;;5103093;28;20648;-55
2022/04/03 05:27:27;;;;;;;0.80;0.80;;;;;;;;;;5120838;28;20209;-57
2022/04/03 05:29:55;;;;;;;0.80;0.80;;;;;;;;;;5120564;28;20461;-55
2022/04/03 05:32:27;;;;;;;0.88;0.88;;;;;;;;;;5120897;28;20207;-55
2022/04/03 05:34:55;;;;;;;0.90;0.90;;;;;;;;;;5120702;28;20278;-55
2022/04/03 05:37:22;;;;;;;0.90;0.90;;;;;;;;;;5118526;28;20209;-55
2022/04/03 05:39:51;;;;;;;0.90;0.90;;;;;;;;;;5101417;28;20290;-55
2022/04/03 05:42:18;;;;;;;0.80;0.80;;;;;;;;;;5116403;28;20285;-55
2022/04/03 05:44:47;;;;;;;0.70;0.70;;;;;;;;;;5100550;28;20234;-55
2022/04/03 05:47:17;;;;;;;0.73;0.73;;;;;;;;;;5120721;28;20207;-55
2022/04/03 05:49:44;;;;;;;0.70;0.70;;;;;;;;;;5119945;28;20214;-56
2022/04/03 05:52:12;;;;;;;0.73;0.73;;;;;;;;;;5120082;28;20191;-55
2022/04/03 05:54:39;;;;;;;0.80;0.80;;;;;;;;;;5120136;28;20301;-55
2022/04/03 05:57:07;;;;;;;1.00;0.90;;;;;;;;;;5118843;28;20206;-56
2022/04/03 05:59:35;;;;;;;0.88;0.88;;;;;;;;;;5108505;28;20582;-56
2022/04/03 06:02:05;;;;;;;1.05;0.90;;;;;;;;;;5120480;28;20210;-56
2022/04/03 06:04:33;;;;;;;1.00;0.90;;;;;;;;;;5104171;28;20237;-55
2022/04/03 06:07:00;;;;;;;1.27;0.90;;;;;;;;;;5099982;28;20730;-56
2022/04/03 06:09:28;;;;;;;0.90;0.90;;;;;;;;;;5099761;28;20199;-55
2022/04/03 06:11:55;;;;;;;0.80;0.80;;;;;;;;;;5099625;28;20231;-55
2022/04/03 06:14:22;;;;;;;0.70;0.70;;;;;;;;;;5099118;28;20200;-56
2022/04/03 06:16:50;;;;;;;0.90;0.90;;;;;;;;;;5115361;28;20209;-55
2022/04/03 06:19:19;;;;;;;0.77;0.77;;;;;;;;;;5119369;28;20246;-55
2022/04/03 06:21:46;;;;;;;0.70;0.70;;;;;;;;;;5119065;28;20493;-55
2022/04/03 06:24:14;;;;;;;0.80;0.80;;;;;;;;;;5118965;28;20245;-55
2022/04/03 06:26:41;;;;;;;0.88;0.88;;;;;;;;;;5119181;28;20207;-55
2022/04/03 06:29:09;;;;;;;1.23;1.00;;;;;;;;;;5119471;28;20203;-55
2022/04/03 06:31:36;;;;;;;1.23;0.90;;;;;;;;;;5118728;28;20233;-55
2022/04/03 06:34:03;;;;;;;0.70;0.70;;;;;;;;;;5118895;28;20468;-55
2022/04/03 06:36:32;;;;;;;1.15;1.08;;;;;;;;;;5118667;28;20199;-55
2022/04/03 06:38:59;;;;;;;1.00;0.90;;;;;;;;;;5103526;28;20207;-55
2022/04/03 06:41:27;;;;;;;0.85;0.85;;;;;;;;;;5102326;28;20232;-55
2022/04/03 06:43:55;;;;;;;0.65;0.65;;;;;;;;;;5104010;28;20244;-56
2022/04/03 06:46:22;;;;;;;0.90;0.90;;;;;;;;;;5100932;28;20206;-55
2022/04/03 06:48:50;;;;;;;0.80;0.80;;;;;;;;;;5099154;28;20230;-55
2022/04/03 06:51:17;;;;;;;0.80;0.80;;;;;;;;;;5098062;28;20223;-55
2022/04/03 06:53:46;;;;;;;0.93;0.88;;;;;;;;;;5098442;28;20200;-56
2022/04/03 06:56:14;;;;;;;0.90;0.90;;;;;;;;;;5098352;28;20200;-56
2022/04/03 06:58:42;;;;;;;0.90;0.90;;;;;;;;;;5097057;28;20215;-55
2022/04/03 07:01:09;;;;;;;0.95;0.90;;;;;;;;;;5112102;28;20214;-55
2022/04/03 07:03:36;;;;;;;1.08;1.00;;;;;;;;;;5117587;28;20475;-55
2022/04/03 07:06:04;;;;;;;0.80;0.80;;;;;;;;;;5117720;28;20199;-55
2022/04/03 07:08:31;;;;;;;1.00;0.90;;;;;;;;;;5104833;28;20199;-55
2022/04/03 07:11:01;;;;;;;1.00;0.85;;;;;;;;;;5097746;28;20298;-55
2022/04/03 07:13:28;;;;;;;0.90;0.90;;;;;;;;;;5097585;28;20249;-55
2022/04/03 07:15:55;;;;;;;0.70;0.70;;;;;;;;;;5116151;28;20199;-55
2022/04/03 07:18:23;;;;;;;0.98;0.82;;;;;;;;;;5117479;28;20195;-55
2022/04/03 07:20:50;;;;;;;0.98;0.93;;;;;;;;;;5117319;28;20198;-55
2022/04/03 07:23:18;;;;;;;1.10;0.90;;;;;;;;;;5118408;28;20281;-55
2022/04/03 07:25:46;;;;;;;0.82;0.82;;;;;;;;;;5105982;28;20211;-55
2022/04/03 07:28:14;;;;;;;0.90;0.90;;;;;;;;;;5097015;28;20298;-55
2022/04/03 07:30:42;;;;;;;0.60;0.60;;;;;;;;;;5107563;28;20209;-56
2022/04/03 07:33:09;;;;;;;0.90;0.90;;;;;;;;;;5117675;28;20217;-56
2022/04/03 07:35:37;;;;;;;0.73;0.73;;;;;;;;;;5107556;28;20210;-56
2022/04/03 07:38:05;;;;;;;1.23;0.70;;;;;;;;;;5104560;28;20584;-55
2022/04/03 07:40:32;;;;;;;0.75;0.75;;;;;;;;;;5110962;28;20210;-56
2022/04/03 07:43:00;;;;;;;0.88;0.70;;;;;;;;;;5097381;28;20222;-56
2022/04/03 07:45:29;;;;;;;1.02;0.80;;;;;;;;;;5113136;28;20296;-56
2022/04/03 07:47:56;;;;;;;0.82;0.82;;;;;;;;;;5097358;28;20498;-56
2022/04/03 07:50:23;;;;;;;1.00;0.90;;;;;;;;;;5097247;28;20199;-56
2022/04/03 07:52:51;;;;;;;1.63;0.88;;;;;;;;;;5097344;28;20203;-55
2022/04/03 07:55:19;;;;;;;1.05;0.70;;;;;;;;;;5097086;28;20203;-55
2022/04/03 07:57:46;;;;;;;1.35;1.02;;;;;;;;;;5097340;28;20235;-56
2022/04/03 08:00:15;;;;;;;2.03;0.90;;;;;;;;;;5099538;28;20217;-56
2022/04/03 08:02:44;;;;;;;0.80;0.77;;;;;;;;;;5105333;28;20590;-56
2022/04/03 08:05:11;;;;;;;0.95;0.90;;;;;;;;;;5096369;28;20231;-56
2022/04/03 08:07:39;;;;;;;1.25;0.90;;;;;;;;;;5115476;28;20199;-55
2022/04/03 08:10:08;;;;;;;2.03;1.00;;;;;;;;;;5117416;28;20204;-56
2022/04/03 08:12:35;;;;;;;1.05;0.80;;;;;;;;;;5117504;28;20301;-56
2022/04/03 08:15:04;;;;;;;1.25;0.88;;;;;;;;;;5116912;28;20198;-55
2022/04/03 08:17:31;;;;;;;1.35;1.00;;;;;;;;;;5117400;28;20203;-55
2022/04/03 08:20:00;;;;;;;1.95;1.13;;;;;;;;;;5096706;28;20201;-55
2022/04/03 08:22:27;;;;;;;1.00;0.90;;;;;;;;;;5096740;28;20199;-55
2022/04/03 08:24:55;;;;;;;1.25;0.98;;;;;;;;;;5096437;28;20223;-56
2022/04/03 08:27:23;;;;;;;1.35;1.17;;;;;;;;;;5096491;28;20230;-56
2022/04/03 08:29:50;;;;;;;1.77;1.08;;;;;;;;;;5096747;28;20288;-55
2022/04/03 08:32:18;;;;;;;2.28;1.40;;;;;;;;;;5096484;28;20550;-56
2022/04/03 08:34:46;;;;;;;1.55;1.30;;;;;;;;;;5096378;28;20424;-56
2022/04/03 08:37:14;;;;;;;2.08;1.40;;;;;;;;;;5096207;28;20214;-55
2022/04/03 08:39:42;;;;;;;1.95;1.45;;;;;;;;;;5113163;28;20299;-55
2022/04/03 08:42:12;;;;;;;1.50;1.20;;;;;;;;;;5096269;28;20242;-56
2022/04/03 08:44:39;;;;;;;1.67;1.30;;;;;;;;;;5107818;28;20559;-56
2022/04/03 08:47:09;;;;;;;2.40;1.35;;;;;;;;;;5100403;28;20211;-56
2022/04/03 08:49:38;;;;;;;1.73;1.40;;;;;;;;;;5114481;28;20290;-56
2022/04/03 08:52:06;;;;;;;2.50;1.50;;;;;;;;;;5115811;28;20272;-56
2022/04/03 08:54:35;;;;;;;2.08;1.40;;;;;;;;;;5114238;28;20230;-56
2022/04/03 08:57:02;;;;;;;1.88;1.38;;;;;;;;;;5097264;28;20203;-56
2022/04/03 08:59:30;;;;;;;1.85;1.40;;;;;;;;;;5100803;28;20211;-56
2022/04/03 09:01:57;;;;;;;1.55;1.40;;;;;;;;;;5099355;28;20653;-56
2022/04/03 09:04:27;;;;;;;2.00;1.35;;;;;;;;;;5099365;28;20245;-56
2022/04/03 09:06:55;;;;;;;3.47;1.30;;;;;;;;;;5099489;28;20195;-56
2022/04/03 09:09:23;;;;;;;1.92;1.40;;;;;;;;;;5117597;28;20207;-55
2022/04/03 09:12:05;;;;;;;2.05;1.52;;;;;;;;;;5119696;28;20223;-55
2022/04/03 09:14:34;;;;;;;2.25;1.40;;;;;;;;;;5119722;28;20199;-55
2022/04/03 09:17:01;;;;;;;2.88;1.30;;;;;;;;;;5120303;28;20204;-56
2022/04/03 09:19:33;;;;;;;1.77;1.60;;;;;;;;;;5103379;28;20294;-57
2022/04/03 09:22:01;;;;;;;4.38;3.35;;;;;;;;;;5101215;28;20199;-57
2022/04/03 09:24:29;;;;;;;3.95;3.30;;;;;;;;;;5116529;28;20286;-57
2022/04/03 09:27:00;;;;;;;5.40;3.35;;;;;;;;;;5098605;28;20203;-56
2022/04/03 09:29:27;;;;;;;3.75;3.28;;;;;;;;;;5099978;28;20211;-56
2022/04/03 09:32:01;;;;;;;3.40;3.10;;;;;;;;;;5119514;28;20298;-56
2022/04/03 09:34:30;;;;;;;3.22;2.65;;;;;;;;;;5118848;28;20289;-56
2022/04/03 09:36:58;;;;;;;3.53;2.80;;;;;;;;;;5118333;28;20212;-56
2022/04/03 09:39:27;;;;;;;2.92;2.72;;;;;;;;;;5100625;28;20617;-56
2022/04/03 09:41:58;;;;;;;3.28;2.78;;;;;;;;;;5100267;28;20327;-56
2022/04/03 09:44:27;;;;;;;4.88;2.72;;;;;;;;;;5111196;28;20219;-57
2022/04/03 09:47:13;;;;;;;3.67;2.83;;;;;;;;;;5105680;28;20504;-56
2022/04/03 09:49:41;;;;;;;3.17;2.65;;;;;;;;;;5118660;28;20291;-56
2022/04/03 09:52:10;;;;;;;2.72;2.40;;;;;;;;;;5112670;28;20195;-56
2022/04/03 09:54:39;;;;;;;3.55;2.10;;;;;;;;;;5098351;28;20746;-56
2022/04/03 09:57:23;;;;;;;3.97;2.60;;;;;;;;;;5098111;28;20795;-56
2022/04/03 09:59:54;;;;;;;3.35;2.35;;;;;;;;;;5099026;28;20195;-57
2022/04/03 10:02:24;;;;;;;2.53;2.08;;;;;;;;;;5106641;28;20203;-56
2022/04/03 10:04:52;;;;;;;2.22;2.03;;;;;;;;;;5117549;28;20262;-56
2022/04/03 10:07:20;;;;;;;3.08;2.15;;;;;;;;;;5101496;28;20211;-56
2022/04/03 10:09:49;;;;;;;2.38;2.15;;;;;;;;;;5096207;28;20268;-56
2022/04/03 10:12:17;;;;;;;2.50;2.08;;;;;;;;;;5096940;28;20565;-56
2022/04/03 10:14:45;;;;;;;3.83;2.30;;;;;;;;;;5096887;28;20203;-57
2022/04/03 10:17:12;;;;;;;2.22;2.03;;;;;;;;;;5097332;28;20277;-56
2022/04/03 10:19:41;;;;;;;2.75;1.98;;;;;;;;;;5105689;28;20192;-55
2022/04/03 10:22:11;;;;;;;2.42;2.00;;;;;;;;;;5111002;28;20195;-56
2022/04/03 10:24:40;;;;;;;1.70;1.58;;;;;;;;;;5107381;28;20247;-56
2022/04/03 10:27:09;;;;;;;6.70;6.10;;;;;;;;;;5097256;28;20200;-57
2022/04/03 10:29:39;;;;;;;8.55;7.22;;;;;;;;;;5097204;28;20210;-56
2022/04/03 10:32:07;;;;;;;10.80;9.85;;;;;;;;;;5097794;28;20204;-57
2022/04/03 10:34:47;;;;;;;10.88;9.77;;;;;;;;;;5097364;28;20206;-56
2022/04/03 10:37:25;;;;;;;9.88;8.95;;;;;;;;;;5098633;28;20540;-56
2022/04/03 10:39:54;;;;;;;9.55;8.65;;;;;;;;;;5114486;28;20195;-56
2022/04/03 10:42:26;;;;;;;8.43;7.63;;;;;;;;;;5097183;28;20323;-56
2022/04/03 10:45:23;;;;;;;8.20;7.50;;;;;;;;;;5102450;28;20465;-57
2022/04/03 10:47:51;;;;;;;7.97;7.18;;;;;;;;;;5014591;28;20221;-56
2022/04/03 10:50:19;;;;;;;7.50;6.80;;;;;;;;;;5094906;28;20195;-56
2022/04/03 10:53:00;;;;;;;7.22;6.57;;;;;;;;;;5115900;28;20199;-56
2022/04/03 10:55:29;;;;;;;7.10;6.47;;;;;;;;;;5099147;28;20200;-56
2022/04/03 10:58:02;;;;;;;7.00;6.30;;;;;;;;;;5096851;28;20211;-56
2022/04/03 11:00:47;;;;;;;6.88;6.20;;;;;;;;;;5096589;28;20215;-56
2022/04/03 11:03:36;;;;;;;6.63;5.70;;;;;;;;;;5097034;28;20498;-56
2022/04/03 11:06:22;;;;;;;6.45;5.78;;;;;;;;;;5096707;28;20224;-56
2022/04/03 11:09:01;;;;;;;6.03;5.40;;;;;;;;;;5113560;28;20199;-56
2022/04/03 11:11:32;;;;;;;5.55;5.13;;;;;;;;;;5115857;28;20202;-56
2022/04/03 11:14:00;;;;;;;5.90;4.90;;;;;;;;;;5116431;28;20206;-56
2022/04/03 11:16:28;;;;;;;5.55;5.05;;;;;;;;;;5116426;28;20191;-56
2022/04/03 11:18:56;;;;;;;5.53;5.13;;;;;;;;;;5115798;28;20203;-56
2022/04/03 11:21:26;;;;;;;5.38;4.88;;;;;;;;;;5098113;28;20210;-57
2022/04/03 11:23:54;;;;;;;4.82;4.43;;;;;;;;;;5115960;28;20222;-56
2022/04/03 11:26:23;;;;;;;5.35;4.80;;;;;;;;;;5114458;28;20219;-56
2022/04/03 11:28:51;;;;;;;4.60;4.20;;;;;;;;;;5109143;28;20263;-57
2022/04/03 11:31:19;;;;;;;4.78;4.30;;;;;;;;;;5115606;28;20205;-56
2022/04/03 11:33:47;;;;;;;4.78;4.38;;;;;;;;;;5116584;28;20210;-56
2022/04/03 11:36:16;;;;;;;4.80;4.40;;;;;;;;;;5116349;28;20206;-56
2022/04/03 11:38:44;;;;;;;4.50;4.10;;;;;;;;;;5103467;28;20539;-56
2022/04/03 11:41:13;;;;;;;4.28;3.88;;;;;;;;;;5108777;28;20325;-57
2022/04/03 11:43:42;;;;;;;4.20;3.90;;;;;;;;;;5116176;28;20218;-57
2022/04/03 11:46:10;;;;;;;4.85;4.18;;;;;;;;;;5111464;28;20530;-57
2022/04/03 11:48:43;;;;;;;4.85;4.10;;;;;;;;;;5096696;28;20203;-57
2022/04/03 11:51:12;;;;;;;4.40;3.83;;;;;;;;;;5095587;28;20199;-56
2022/04/03 11:53:40;;;;;;;3.72;3.42;;;;;;;;;;5095676;28;20257;-56
2022/04/03 11:56:09;;;;;;;3.63;3.33;;;;;;;;;;5096070;28;20241;-56
2022/04/03 11:58:38;;;;;;;3.90;3.60;;;;;;;;;;5108501;28;20196;-55
2022/04/03 12:01:08;;;;;;;3.97;3.60;;;;;;;;;;5096315;28;20221;-56
2022/04/03 12:03:36;;;;;;;4.80;3.50;;;;;;;;;;5107164;28;20740;-55
2022/04/03 12:06:16;;;;;;;3.97;3.20;;;;;;;;;;5116609;28;20566;-55
2022/04/03 12:08:45;;;;;;;3.75;3.35;;;;;;;;;;5116309;28;20206;-56
2022/04/03 12:11:20;;;;;;;3.45;3.13;;;;;;;;;;5116889;28;20690;-56
2022/04/03 12:13:48;;;;;;;3.55;3.25;;;;;;;;;;5116095;28;20202;-56
2022/04/03 12:16:21;;;;;;;3.13;2.92;;;;;;;;;;5100680;28;20234;-56
2022/04/03 12:18:59;;;;;;;3.10;2.80;;;;;;;;;;5095221;28;20554;-55
2022/04/03 12:21:39;;;;;;;3.10;2.88;;;;;;;;;;5095122;28;20210;-55
2022/04/03 12:24:08;;;;;;;3.08;2.80;;;;;;;;;;5095061;28;20207;-55
2022/04/03 12:26:36;;;;;;;3.30;3.00;;;;;;;;;;5094731;28;20792;-55
2022/04/03 12:29:05;;;;;;;5.13;4.63;;;;;;;;;;5102532;28;20207;-55
2022/04/03 12:31:35;;;;;;;22.30;18.42;;;;;;;;;;5114412;28;20195;-55
2022/04/03 12:34:07;;;;;;;27.40;22.52;;;;;;;;;;5095301;28;20702;-56
2022/04/03 12:36:39;;;;;;;60.33;44.25;;;;;;;;;;5097968;28;20199;-56
2022/04/03 12:39:25;;;;;;;62.10;44.60;;;;;;;;;;5110958;28;20206;-55
2022/04/03 12:41:52;;;;;;;59.13;44.15;;;;;;;;;;5097064;28;20230;-57
2022/04/03 12:44:19;;;;;;;49.30;36.85;;;;;;;;;;5097009;28;20204;-56
2022/04/03 12:46:48;;;;;;;48.47;36.33;;;;;;;;;;5114732;28;20649;-56
2022/04/03 12:49:17;;;;;;;47.63;35.22;;;;;;;;;;5114143;28;20213;-56
2022/04/03 12:51:46;;;;;;;46.55;34.55;;;;;;;;;;5114592;28;20198;-57
2022/04/03 12:54:13;;;;;;;43.05;32.13;;;;;;;;;;5114711;28;20203;-57
2022/04/03 12:59:25;;;;;;;49.85;37.28;;;;;;;;;;5094140;28;20191;-56
2022/04/03 13:01:57;;;;;;;44.90;37.22;;;;;;;;;;5101477;28;20274;-56
2022/04/03 13:04:31;;;;;;;57.40;45.63;;;;;;;;;;5113907;28;20195;-56
2022/04/03 13:06:59;;;;;;;47.58;38.88;;;;;;;;;;5102591;28;20223;-56
2022/04/03 13:09:30;;;;;;;46.72;37.67;;;;;;;;;;5112082;28;20623;-57
2022/04/03 13:11:59;;;;;;;48.10;37.47;;;;;;;;;;5115205;28;20203;-56
2022/04/03 13:14:29;;;;;;;41.55;34.70;;;;;;;;;;5115432;28;20199;-56
2022/04/03 13:17:01;;;;;;;38.45;31.10;;;;;;;;;;5115321;28;20274;-57
2022/04/03 13:19:29;;;;;;;36.58;30.73;;;;;;;;;;5114842;28;20222;-56
2022/04/03 13:21:57;;;;;;;40.90;31.77;;;;;;;;;;5114690;28;20203;-56
2022/04/03 13:24:24;;;;;;;39.38;30.50;;;;;;;;;;5114128;28;20202;-56
2022/04/03 13:26:52;;;;;;;36.00;29.75;;;;;;;;;;5114995;28;20258;-56
2022/04/03 13:29:19;;;;;;;34.15;28.10;;;;;;;;;;5114380;28;20250;-56
2022/04/03 13:31:47;;;;;;;167.15;131.80;;;;;;;;;;5113985;28;20214;-56
2022/04/03 13:34:17;;;;;;;53.45;45.08;;;;;;;;;;5105318;28;20200;-56
2022/04/03 13:36:45;;;;;;;122.65;99.15;;;;;;;;;;5094648;28;20575;-56
2022/04/03 13:39:12;;;;;;;166.30;137.82;;;;;;;;;;5109943;28;20545;-57
2022/04/03 13:41:40;;;;;;;153.23;125.20;;;;;;;;;;5111286;28;20242;-56
2022/04/03 13:44:11;;;;;;;136.75;112.40;;;;;;;;;;5117115;28;20202;-56
2022/04/03 13:46:39;;;;;;;128.50;108.18;;;;;;;;;;5097504;28;20330;-58
2022/04/03 13:49:08;;;;;;;126.45;106.75;;;;;;;;;;5098720;28;20199;-57
2022/04/03 13:51:37;;;;;;;122.68;102.60;;;;;;;;;;5096340;28;20203;-55
2022/04/03 13:54:04;;;;;;;115.72;95.18;;;;;;;;;;5097543;28;20204;-55
2022/04/03 13:56:32;;;;;;;116.30;97.85;;;;;;;;;;5098019;28;20195;-56
2022/04/03 13:59:00;;;;;;;110.68;89.28;;;;;;;;;;5099811;28;20206;-56
2022/04/03 14:01:29;;;;;;;103.72;81.95;;;;;;;;;;5106925;28;20192;-56
2022/04/03 14:03:57;;;;;;;100.38;81.85;;;;;;;;;;5097301;28;20209;-56
2022/04/03 14:06:25;;;;;;;91.47;75.22;;;;;;;;;;5114885;28;20233;-56
2022/04/03 14:08:54;;;;;;;91.05;74.38;;;;;;;;;;5118470;28;20210;-56
2022/04/03 14:11:21;;;;;;;85.55;71.28;;;;;;;;;;5117049;28;20205;-55
2022/04/03 14:13:49;;;;;;;83.18;67.60;;;;;;;;;;5117593;28;20199;-56
2022/04/03 14:16:16;;;;;;;80.60;67.80;;;;;;;;;;5117099;28;20195;-56
2022/04/03 14:18:44;;;;;;;75.38;63.45;;;;;;;;;;5098185;28;20204;-56
2022/04/03 14:21:11;;;;;;;72.65;61.60;;;;;;;;;;5096916;28;20207;-56
2022/04/03 14:23:38;;;;;;;74.28;62.80;;;;;;;;;;5096863;28;20203;-56
2022/04/03 14:26:08;;;;;;;67.70;57.85;;;;;;;;;;5097827;28;20219;-56
2022/04/03 14:28:36;;;;;;;65.93;56.30;;;;;;;;;;5097321;28;20489;-56
2022/04/03 14:31:04;;;;;;;66.45;55.78;;;;;;;;;;5097286;28;20215;-56
2022/04/03 14:33:31;;;;;;;63.58;54.50;;;;;;;;;;5096708;28;20200;-56
2022/04/03 14:35:58;;;;;;;61.38;51.58;;;;;;;;;;5103173;28;20188;-55
2022/04/03 14:38:27;;;;;;;59.28;51.25;;;;;;;;;;5107423;28;20195;-56
2022/04/03 14:40:54;;;;;;;55.83;48.63;;;;;;;;;;5106164;28;20251;-56
2022/04/03 14:43:23;;;;;;;53.30;46.50;;;;;;;;;;5117783;28;20207;-56
2022/04/03 14:45:51;;;;;;;56.58;47.40;;;;;;;;;;5099928;28;20606;-56
2022/04/03 14:48:18;;;;;;;52.47;45.95;;;;;;;;;;5096903;28;20461;-56
2022/04/03 14:50:46;;;;;;;50.08;43.20;;;;;;;;;;5096657;28;20478;-55